createdAt,value
2019-04-25T08:06:27.634Z,14.31
2019-04-25T08:06:56.739Z,14.35
2019-04-25T08:07:27.989Z,14.41
2019-04-25T08:07:56.742Z,14.43
2019-04-25T08:08:27.433Z,14.51
2019-04-25T08:08:56.742Z,14.56
2019-04-25T08:09:27.343Z,14.62
2019-04-25T08:09:57.120Z,14.66
2019-04-25T08:10:27.861Z,14.66
2019-04-25T08:10:56.736Z,14.68
2019-04-25T08:11:28.011Z,14.68
2019-04-25T08:11:56.744Z,14.68
2019-04-25T08:12:28.224Z,14.69
2019-04-25T08:12:56.749Z,14.66
2019-04-25T08:13:27.722Z,14.65
2019-04-25T08:13:56.781Z,14.65
2019-04-25T08:14:28.435Z,14.60
2019-04-25T08:14:56.749Z,14.56
2019-04-25T08:15:28.216Z,14.51
2019-04-25T08:15:56.755Z,14.45
2019-04-25T08:16:26.802Z,14.45
2019-04-25T08:16:56.750Z,14.41
2019-04-25T08:17:26.804Z,14.43
2019-04-25T08:17:56.754Z,14.42
2019-04-25T08:18:26.802Z,14.41
2019-04-25T08:18:56.756Z,14.43
2019-04-25T08:19:26.801Z,14.46
2019-04-25T08:19:56.784Z,14.43
2019-04-25T08:20:27.052Z,14.45
2019-04-25T08:20:56.740Z,14.43
2019-04-25T08:21:26.805Z,14.43
2019-04-25T08:21:56.762Z,14.41
2019-04-25T08:22:26.811Z,14.38
2019-04-25T08:22:58.977Z,14.41
2019-04-25T08:23:26.813Z,14.39
2019-04-25T08:23:56.769Z,14.41
2019-04-25T08:24:26.802Z,14.42
2019-04-25T08:24:56.744Z,14.43
2019-04-25T08:25:26.808Z,14.48
2019-04-25T08:25:56.748Z,14.48
2019-04-25T08:26:26.816Z,14.42
2019-04-25T08:26:56.737Z,14.35
2019-04-25T08:27:26.800Z,14.29
2019-04-25T08:27:56.746Z,14.32
2019-04-25T08:28:26.810Z,14.36
2019-04-25T08:28:57.756Z,14.28
2019-04-25T08:29:26.813Z,14.22
2019-04-25T08:29:56.746Z,14.12
2019-04-25T08:30:26.802Z,14.05
2019-04-25T08:30:57.155Z,14.03
2019-04-25T08:31:26.802Z,14.00
2019-04-25T08:31:56.757Z,14.01
2019-04-25T08:32:26.813Z,14.08
2019-04-25T08:32:56.759Z,14.17
2019-04-25T08:33:26.816Z,14.24
2019-04-25T08:33:56.740Z,14.29
2019-04-25T08:34:26.812Z,14.36
2019-04-25T08:34:56.743Z,14.41
2019-04-25T08:35:26.830Z,14.45
2019-04-25T08:36:06.423Z,14.55
2019-04-25T08:36:26.844Z,14.63
2019-04-25T08:36:56.907Z,14.75
2019-04-25T08:37:26.807Z,14.82
2019-04-25T08:37:56.743Z,14.80
2019-04-25T08:38:26.815Z,14.79
2019-04-25T08:38:56.751Z,14.83
2019-04-25T08:39:26.809Z,14.84
2019-04-25T08:39:56.749Z,14.84
2019-04-25T08:40:26.815Z,14.84
2019-04-25T08:40:56.749Z,14.84
2019-04-25T08:41:27.114Z,14.88
2019-04-25T08:41:56.743Z,14.91
2019-04-25T08:42:26.808Z,14.93
2019-04-25T08:42:56.751Z,14.94
2019-04-25T08:43:26.810Z,14.97
2019-04-25T08:43:56.742Z,15.04
2019-04-25T08:44:26.807Z,15.06
2019-04-25T08:44:56.754Z,15.07
2019-04-25T08:45:26.816Z,15.10
2019-04-25T08:45:56.749Z,15.10
2019-04-25T08:46:26.808Z,15.13
2019-04-25T08:46:56.750Z,15.11
2019-04-25T08:47:26.814Z,15.10
2019-04-25T08:47:56.753Z,15.10
2019-04-25T08:48:26.810Z,15.11
2019-04-25T08:48:56.760Z,15.14
2019-04-25T08:49:26.902Z,15.15
2019-04-25T08:49:51.329Z,15.15
2019-04-25T08:49:56.798Z,15.17
2019-04-25T08:50:26.641Z,15.16
2019-04-25T08:50:31.091Z,15.11
2019-04-25T08:50:56.803Z,15.08
2019-04-25T08:51:26.854Z,15.06
2019-04-25T08:51:57.250Z,15.07
2019-04-25T08:52:26.853Z,15.07
2019-04-25T08:52:56.798Z,15.10
2019-04-25T08:53:26.865Z,15.13
2019-04-25T08:53:56.801Z,15.21
2019-04-25T08:54:26.865Z,15.28
2019-04-25T08:54:57.560Z,15.34
2019-04-25T08:55:26.854Z,15.35
2019-04-25T08:55:56.791Z,15.37
2019-04-25T08:56:26.845Z,15.39
2019-04-25T08:56:56.798Z,15.42
2019-04-25T08:57:26.864Z,15.48
2019-04-25T08:57:57.028Z,15.59
2019-04-25T08:58:26.867Z,15.70
2019-04-25T08:59:04.103Z,15.70
2019-04-25T08:59:35.159Z,15.66
2019-04-25T08:59:56.796Z,15.65
2019-04-25T09:00:26.868Z,15.62
2019-04-25T09:01:00.494Z,15.65
2019-04-25T09:01:26.865Z,15.66
2019-04-25T09:01:56.804Z,15.63
2019-04-25T09:02:27.147Z,15.63
2019-04-25T09:02:56.831Z,15.59
2019-04-25T09:03:26.863Z,15.53
2019-04-25T09:03:56.801Z,15.49
2019-04-25T09:04:26.871Z,15.45
2019-04-25T09:04:56.861Z,15.46
2019-04-25T09:05:26.921Z,15.48
2019-04-25T09:05:56.811Z,15.49
2019-04-25T09:06:26.854Z,15.42
2019-04-25T09:06:56.807Z,15.30
2019-04-25T09:07:26.848Z,15.18
2019-04-25T09:07:56.804Z,15.15
2019-04-25T09:08:26.865Z,15.20
2019-04-25T09:08:56.796Z,15.25
2019-04-25T09:09:26.864Z,15.28
2019-04-25T09:09:56.805Z,15.31
2019-04-25T09:10:26.876Z,15.33
2019-04-25T09:10:56.814Z,15.35
2019-04-25T09:11:26.868Z,15.31
2019-04-25T09:11:56.792Z,15.27
2019-04-25T09:12:26.857Z,15.24
2019-04-25T09:12:57.215Z,15.24
2019-04-25T09:13:26.860Z,15.30
2019-04-25T09:13:56.801Z,15.35
2019-04-25T09:14:26.874Z,15.41
2019-04-25T09:14:56.798Z,15.51
2019-04-25T09:15:26.882Z,15.58
2019-04-25T09:15:56.798Z,15.66
2019-04-25T09:16:26.871Z,15.72
2019-04-25T09:16:56.807Z,15.73
2019-04-25T09:17:26.869Z,15.80
2019-04-25T09:17:56.804Z,15.86
2019-04-25T09:18:26.862Z,15.86
2019-04-25T09:18:56.805Z,15.90
2019-04-25T09:19:26.876Z,15.89
2019-04-25T09:19:56.808Z,15.93
2019-04-25T09:20:26.916Z,15.96
2019-04-25T09:20:56.816Z,16.01
2019-04-25T09:21:26.868Z,16.03
2019-04-25T09:21:56.802Z,16.10
2019-04-25T09:22:26.877Z,16.13
2019-04-25T09:22:56.803Z,16.13
2019-04-25T09:23:27.175Z,16.11
2019-04-25T09:23:56.809Z,16.11
2019-04-25T09:24:26.883Z,16.10
2019-04-25T09:24:56.801Z,16.04
2019-04-25T09:25:26.858Z,15.96
2019-04-25T09:25:56.799Z,15.96
2019-04-25T09:26:26.868Z,15.93
2019-04-25T09:26:56.823Z,15.99
2019-04-25T09:27:26.869Z,15.96
2019-04-25T09:27:56.813Z,15.97
2019-04-25T09:28:26.862Z,15.94
2019-04-25T09:28:56.801Z,15.86
2019-04-25T09:29:26.866Z,15.82
2019-04-25T09:29:56.802Z,15.73
2019-04-25T09:30:26.866Z,15.68
2019-04-25T09:30:56.810Z,15.68
2019-04-25T09:31:26.880Z,15.68
2019-04-25T09:31:56.804Z,15.65
2019-04-25T09:32:26.867Z,15.61
2019-04-25T09:32:56.803Z,15.61
2019-04-25T09:33:26.867Z,15.65
2019-04-25T09:33:57.383Z,15.66
2019-04-25T09:34:26.872Z,15.72
2019-04-25T09:34:56.805Z,15.77
2019-04-25T09:35:26.867Z,15.83
2019-04-25T09:35:56.836Z,15.86
2019-04-25T09:36:26.869Z,15.94
2019-04-25T09:36:56.812Z,15.99
2019-04-25T09:37:26.856Z,16.04
2019-04-25T09:37:56.802Z,16.07
2019-04-25T09:38:26.869Z,16.07
2019-04-25T09:38:56.814Z,16.10
2019-04-25T09:39:26.872Z,16.14
2019-04-25T09:39:56.806Z,16.20
2019-04-25T09:40:27.099Z,16.23
2019-04-25T09:40:56.815Z,16.28
2019-04-25T09:41:26.868Z,16.32
2019-04-25T09:41:56.802Z,16.39
2019-04-25T09:42:26.881Z,16.44
2019-04-25T09:42:56.801Z,16.48
2019-04-25T09:43:26.864Z,16.48
2019-04-25T09:43:56.796Z,16.48
2019-04-25T09:44:27.100Z,16.45
2019-04-25T09:44:56.810Z,16.42
2019-04-25T09:45:26.875Z,16.38
2019-04-25T09:45:56.815Z,16.37
2019-04-25T09:46:26.879Z,16.35
2019-04-25T09:46:56.819Z,16.35
2019-04-25T09:47:26.874Z,16.38
2019-04-25T09:47:56.831Z,16.42
2019-04-25T09:48:26.859Z,16.48
2019-04-25T09:48:56.807Z,16.54
2019-04-25T09:49:26.872Z,16.58
2019-04-25T09:49:56.815Z,16.65
2019-04-25T09:50:26.865Z,16.68
2019-04-25T09:50:56.813Z,16.75
2019-04-25T09:51:26.928Z,16.82
2019-04-25T09:51:56.811Z,16.79
2019-04-25T09:52:26.871Z,16.79
2019-04-25T09:52:56.819Z,16.74
2019-04-25T09:53:26.871Z,16.66
2019-04-25T09:53:56.819Z,16.62
2019-04-25T09:54:26.913Z,16.62
2019-04-25T09:54:57.257Z,16.64
2019-04-25T09:55:26.872Z,16.71
2019-04-25T09:55:56.803Z,16.75
2019-04-25T09:56:26.870Z,16.79
2019-04-25T09:56:56.810Z,16.82
2019-04-25T09:57:26.879Z,16.83
2019-04-25T09:57:56.803Z,16.85
2019-04-25T09:58:26.873Z,16.83
2019-04-25T09:58:56.809Z,16.83
2019-04-25T09:59:29.303Z,16.82
2019-04-25T09:59:56.817Z,16.89
2019-04-25T10:00:26.869Z,17.00
2019-04-25T10:00:56.807Z,17.07
2019-04-25T10:01:27.100Z,17.13
2019-04-25T10:01:56.824Z,17.23
2019-04-25T10:02:26.876Z,17.27
2019-04-25T10:02:56.808Z,17.30
2019-04-25T10:03:26.886Z,17.35
2019-04-25T10:03:56.813Z,17.40
2019-04-25T10:04:26.872Z,17.44
2019-04-25T10:04:56.817Z,17.48
2019-04-25T10:05:27.127Z,17.55
2019-04-25T10:05:56.821Z,17.65
2019-04-25T10:06:26.870Z,17.71
2019-04-25T10:06:56.811Z,17.75
2019-04-25T10:07:26.879Z,17.80
2019-04-25T10:07:56.825Z,17.82
2019-04-25T10:08:26.882Z,17.83
2019-04-25T10:08:56.816Z,17.88
2019-04-25T10:09:26.864Z,17.90
2019-04-25T10:09:56.814Z,17.93
2019-04-25T10:10:26.886Z,17.96
2019-04-25T10:10:56.811Z,17.95
2019-04-25T10:11:26.881Z,17.93
2019-04-25T10:11:56.872Z,17.90
2019-04-25T10:12:26.875Z,17.89
2019-04-25T10:12:56.845Z,17.88
2019-04-25T10:13:26.882Z,17.86
2019-04-25T10:13:56.807Z,17.90
2019-04-25T10:14:26.923Z,17.92
2019-04-25T10:14:56.811Z,17.95
2019-04-25T10:15:26.879Z,17.95
2019-04-25T10:15:57.136Z,17.98
2019-04-25T10:16:26.877Z,17.98
2019-04-25T10:16:56.821Z,17.96
2019-04-25T10:17:26.873Z,17.98
2019-04-25T10:17:56.819Z,17.98
2019-04-25T10:18:26.879Z,17.99
2019-04-25T10:18:56.818Z,18.03
2019-04-25T10:19:26.880Z,18.06
2019-04-25T10:19:56.811Z,18.13
2019-04-25T10:20:26.867Z,18.20
2019-04-25T10:20:56.823Z,18.24
2019-04-25T10:21:26.879Z,18.26
2019-04-25T10:21:56.817Z,18.28
2019-04-25T10:22:26.951Z,18.23
2019-04-25T10:22:56.813Z,18.20
2019-04-25T10:23:26.880Z,18.24
2019-04-25T10:23:56.821Z,18.26
2019-04-25T10:24:26.882Z,18.21
2019-04-25T10:25:00.069Z,18.20
2019-04-25T10:25:26.891Z,18.15
2019-04-25T10:25:56.824Z,18.13
2019-04-25T10:26:27.226Z,18.06
2019-04-25T10:26:56.816Z,18.05
2019-04-25T10:27:26.882Z,17.98
2019-04-25T10:27:56.830Z,17.95
2019-04-25T10:28:26.871Z,17.93
2019-04-25T10:28:56.821Z,17.89
2019-04-25T10:29:39.133Z,17.89
2019-04-25T10:29:57.110Z,17.89
2019-04-25T10:30:26.885Z,17.90
2019-04-25T10:30:56.817Z,17.93
2019-04-25T10:31:26.878Z,17.90
2019-04-25T10:31:56.824Z,17.93
2019-04-25T10:32:26.883Z,17.95
2019-04-25T10:32:56.822Z,17.98
2019-04-25T10:33:26.877Z,18.03
2019-04-25T10:33:56.819Z,18.06
2019-04-25T10:34:26.885Z,18.10
2019-04-25T10:34:56.831Z,18.17
2019-04-25T10:35:26.883Z,18.28
2019-04-25T10:35:59.299Z,18.40
2019-04-25T10:36:26.888Z,18.48
2019-04-25T10:36:57.367Z,18.63
2019-04-25T10:37:26.879Z,18.78
2019-04-25T10:37:56.868Z,18.93
2019-04-25T10:38:26.883Z,19.02
2019-04-25T10:39:06.825Z,19.09
2019-04-25T10:39:26.939Z,19.10
2019-04-25T10:39:56.820Z,19.09
2019-04-25T10:40:26.880Z,19.09
2019-04-25T10:40:56.834Z,19.12
2019-04-25T10:41:26.881Z,19.10
2019-04-25T10:41:56.818Z,19.09
2019-04-25T10:42:26.887Z,19.05
2019-04-25T10:42:56.842Z,19.02
2019-04-25T10:43:26.888Z,19.02
2019-04-25T10:43:56.819Z,19.03
2019-04-25T10:44:26.880Z,19.10
2019-04-25T10:44:56.839Z,19.13
2019-04-25T10:45:26.877Z,19.20
2019-04-25T10:45:56.829Z,19.29
2019-04-25T10:46:26.886Z,19.31
2019-04-25T10:46:56.820Z,19.36
2019-04-25T10:47:27.456Z,19.44
2019-04-25T10:47:56.826Z,19.49
2019-04-25T10:48:26.883Z,19.53
2019-04-25T10:48:56.816Z,19.56
2019-04-25T10:49:26.889Z,19.56
2019-04-25T10:49:59.003Z,19.60
2019-04-25T10:50:26.892Z,19.62
2019-04-25T10:50:56.840Z,19.64
2019-04-25T10:51:26.893Z,19.67
2019-04-25T10:51:56.820Z,19.71
2019-04-25T10:52:26.891Z,19.72
2019-04-25T10:52:56.824Z,19.77
2019-04-25T10:53:26.923Z,19.77
2019-04-25T10:53:56.844Z,19.78
2019-04-25T10:54:26.880Z,19.74
2019-04-25T10:54:56.847Z,19.69
2019-04-25T10:55:26.895Z,19.62
2019-04-25T10:55:56.827Z,19.61
2019-04-25T10:56:26.893Z,19.58
2019-04-25T10:56:56.826Z,19.57
2019-04-25T10:57:26.892Z,19.60
2019-04-25T10:57:57.214Z,19.61
2019-04-25T10:58:26.887Z,19.62
2019-04-25T10:58:56.835Z,19.61
2019-04-25T10:59:26.885Z,19.62
2019-04-25T11:00:06.112Z,19.62
2019-04-25T11:00:26.893Z,19.64
2019-04-25T11:00:56.823Z,19.67
2019-04-25T11:01:26.890Z,19.67
2019-04-25T11:01:56.830Z,19.69
2019-04-25T11:02:26.885Z,19.69
2019-04-25T11:02:56.826Z,19.72
2019-04-25T11:03:26.885Z,19.71
2019-04-25T11:03:56.831Z,19.72
2019-04-25T11:04:26.896Z,19.74
2019-04-25T11:04:56.834Z,19.77
2019-04-25T11:05:26.885Z,19.79
2019-04-25T11:05:56.846Z,19.78
2019-04-25T11:06:26.888Z,19.77
2019-04-25T11:06:56.835Z,19.82
2019-04-25T11:07:26.889Z,19.85
2019-04-25T11:07:56.833Z,19.86
2019-04-25T11:08:27.115Z,19.88
2019-04-25T11:08:57.101Z,19.99
2019-04-25T11:09:26.888Z,20.02
2019-04-25T11:09:56.832Z,20.04
2019-04-25T11:10:26.915Z,20.04
2019-04-25T11:10:56.836Z,20.06
2019-04-25T11:11:26.900Z,20.15
2019-04-25T11:11:56.827Z,20.13
2019-04-25T11:12:26.888Z,20.16
2019-04-25T11:12:56.837Z,20.25
2019-04-25T11:13:26.900Z,20.26
2019-04-25T11:13:56.874Z,20.30
2019-04-25T11:14:26.907Z,20.37
2019-04-25T11:14:56.826Z,20.40
2019-04-25T11:15:26.889Z,20.47
2019-04-25T11:15:57.103Z,20.51
2019-04-25T11:16:26.903Z,20.55
2019-04-25T11:16:56.839Z,20.60
2019-04-25T11:17:26.882Z,20.63
2019-04-25T11:17:56.836Z,20.57
2019-04-25T11:18:26.896Z,20.51
2019-04-25T11:18:57.315Z,20.48
2019-04-25T11:19:26.894Z,20.44
2019-04-25T11:19:56.852Z,20.40
2019-04-25T11:20:26.897Z,20.37
2019-04-25T11:20:56.831Z,20.40
2019-04-25T11:21:26.900Z,20.37
2019-04-25T11:21:56.843Z,20.39
2019-04-25T11:22:26.898Z,20.39
2019-04-25T11:22:56.837Z,20.44
2019-04-25T11:23:26.893Z,20.44
2019-04-25T11:23:56.834Z,20.53
2019-04-25T11:24:26.888Z,20.60
2019-04-25T11:24:56.826Z,20.66
2019-04-25T11:25:26.912Z,20.68
2019-04-25T11:25:56.832Z,20.74
2019-04-25T11:26:26.901Z,20.80
2019-04-25T11:26:56.837Z,20.84
2019-04-25T11:27:26.911Z,20.91
2019-04-25T11:27:56.833Z,20.99
2019-04-25T11:28:26.901Z,21.05
2019-04-25T11:28:56.833Z,21.12
2019-04-25T11:29:27.158Z,21.15
2019-04-25T11:30:08.387Z,21.14
2019-04-25T11:30:26.949Z,21.09
2019-04-25T11:30:57.084Z,21.05
2019-04-25T11:31:26.899Z,21.05
2019-04-25T11:31:56.848Z,21.08
2019-04-25T11:32:26.904Z,21.09
2019-04-25T11:32:56.834Z,21.09
2019-04-25T11:33:26.899Z,21.06
2019-04-25T11:33:56.844Z,21.08
2019-04-25T11:34:26.902Z,21.11
2019-04-25T11:34:57.326Z,21.14
2019-04-25T11:35:26.906Z,21.15
2019-04-25T11:35:56.847Z,21.15
2019-04-25T11:36:26.900Z,21.19
2019-04-25T11:36:57.681Z,21.26
2019-04-25T11:37:26.910Z,21.28
2019-04-25T11:37:56.925Z,21.38
2019-04-25T11:38:26.898Z,21.38
2019-04-25T11:38:56.856Z,21.39
2019-04-25T11:39:26.906Z,21.40
2019-04-25T11:39:57.604Z,21.45
2019-04-25T11:40:26.902Z,21.46
2019-04-25T11:40:56.833Z,21.54
2019-04-25T11:41:26.913Z,21.62
2019-04-25T11:41:56.832Z,21.66
2019-04-25T11:42:26.910Z,21.73
2019-04-25T11:42:56.837Z,21.83
2019-04-25T11:43:26.903Z,21.87
2019-04-25T11:43:56.869Z,21.90
2019-04-25T11:44:26.908Z,21.91
2019-04-25T11:44:56.861Z,21.93
2019-04-25T11:45:26.897Z,21.88
2019-04-25T11:45:57.106Z,21.78
2019-04-25T11:46:26.892Z,21.74
2019-04-25T11:46:56.843Z,21.78
2019-04-25T11:47:26.899Z,21.84
2019-04-25T11:47:56.837Z,21.88
2019-04-25T11:48:26.914Z,21.91
2019-04-25T11:48:56.838Z,22.01
2019-04-25T11:49:26.899Z,22.05
2019-04-25T11:49:56.841Z,22.11
2019-04-25T11:50:27.135Z,22.14
2019-04-25T11:50:56.847Z,22.18
2019-04-25T11:51:26.899Z,22.20
2019-04-25T11:51:56.844Z,22.21
2019-04-25T11:52:29.608Z,22.28
2019-04-25T11:52:56.849Z,22.34
2019-04-25T11:53:26.908Z,22.39
2019-04-25T11:53:56.853Z,22.46
2019-04-25T11:54:26.920Z,22.53
2019-04-25T11:54:56.860Z,22.56
2019-04-25T11:55:26.913Z,22.58
2019-04-25T11:55:56.853Z,22.56
2019-04-25T11:56:26.896Z,22.62
2019-04-25T11:56:56.854Z,22.60
2019-04-25T11:57:26.904Z,22.66
2019-04-25T11:57:56.849Z,22.68
2019-04-25T11:58:26.913Z,22.72
2019-04-25T11:58:56.861Z,22.76
2019-04-25T11:59:26.906Z,22.79
2019-04-25T11:59:56.844Z,22.83
2019-04-25T12:00:26.942Z,22.86
2019-04-25T12:00:57.975Z,22.93
2019-04-25T12:01:26.902Z,23.00
2019-04-25T12:01:57.365Z,23.06
2019-04-25T12:02:26.898Z,23.07
2019-04-25T12:02:56.854Z,23.04
2019-04-25T12:03:26.904Z,22.98
2019-04-25T12:03:56.848Z,22.94
2019-04-25T12:04:26.986Z,22.86
2019-04-25T12:04:56.861Z,22.69
2019-04-25T12:05:26.911Z,22.58
2019-04-25T12:05:56.851Z,22.52
2019-04-25T12:06:26.900Z,22.49
2019-04-25T12:06:56.863Z,22.41
2019-04-25T12:07:26.908Z,22.39
2019-04-25T12:07:56.850Z,22.39
2019-04-25T12:08:26.913Z,22.39
2019-04-25T12:08:56.851Z,22.38
2019-04-25T12:09:26.904Z,22.42
2019-04-25T12:09:56.845Z,22.49
2019-04-25T12:10:26.981Z,22.49
2019-04-25T12:10:56.846Z,22.50
2019-04-25T12:11:27.414Z,22.49
2019-04-25T12:11:56.848Z,22.48
2019-04-25T12:12:26.967Z,22.45
2019-04-25T12:12:57.603Z,22.43
2019-04-25T12:13:27.130Z,22.46
2019-04-25T12:13:56.845Z,22.50
2019-04-25T12:14:26.910Z,22.49
2019-04-25T12:14:56.857Z,22.48
2019-04-25T12:15:26.913Z,22.49
2019-04-25T12:15:56.866Z,22.49
2019-04-25T12:16:26.908Z,22.52
2019-04-25T12:16:56.852Z,22.56
2019-04-25T12:17:26.908Z,22.60
2019-04-25T12:17:57.571Z,22.63
2019-04-25T12:18:26.908Z,22.66
2019-04-25T12:18:56.944Z,22.66
2019-04-25T12:19:34.474Z,22.65
2019-04-25T12:19:57.487Z,22.63
2019-04-25T12:20:26.915Z,22.63
2019-04-25T12:20:57.932Z,22.60
2019-04-25T12:21:26.911Z,22.59
2019-04-25T12:21:58.159Z,22.56
2019-04-25T12:22:26.905Z,22.55
2019-04-25T12:23:05.780Z,22.55
2019-04-25T12:23:26.908Z,22.55
2019-04-25T12:23:56.868Z,22.46
2019-04-25T12:24:26.921Z,22.42
2019-04-25T12:24:56.856Z,22.38
2019-04-25T12:25:26.929Z,22.39
2019-04-25T12:25:57.623Z,22.41
2019-04-25T12:26:27.002Z,22.41
2019-04-25T12:26:56.856Z,22.39
2019-04-25T12:27:27.191Z,22.41
2019-04-25T12:27:56.845Z,22.43
2019-04-25T12:28:26.916Z,22.49
2019-04-25T12:28:56.853Z,22.46
2019-04-25T12:29:26.920Z,22.48
2019-04-25T12:29:57.321Z,22.43
2019-04-25T12:30:37.020Z,22.39
2019-04-25T12:30:57.599Z,22.35
2019-04-25T12:31:26.920Z,22.32
2019-04-25T12:31:56.865Z,22.29
2019-04-25T12:32:27.121Z,22.31
2019-04-25T12:32:56.943Z,22.32
2019-04-25T12:33:26.926Z,22.28
2019-04-25T12:33:57.633Z,22.34
2019-04-25T12:34:27.159Z,22.36
2019-04-25T12:34:56.856Z,22.41
2019-04-25T12:35:26.916Z,22.43
2019-04-25T12:35:56.849Z,22.43
2019-04-25T12:36:26.912Z,22.42
2019-04-25T12:36:57.537Z,22.35
2019-04-25T12:37:26.915Z,22.36
2019-04-25T12:37:56.870Z,22.31
2019-04-25T12:38:26.911Z,22.29
2019-04-25T12:38:56.868Z,22.29
2019-04-25T12:39:26.922Z,22.35
2019-04-25T12:39:56.851Z,22.39
2019-04-25T12:40:26.923Z,22.46
2019-04-25T12:40:56.859Z,22.48
2019-04-25T12:41:26.913Z,22.53
2019-04-25T12:41:57.027Z,22.59
2019-04-25T12:42:26.925Z,22.62
2019-04-25T12:42:57.126Z,22.65
2019-04-25T12:43:26.929Z,22.65
2019-04-25T12:43:56.859Z,22.68
2019-04-25T12:44:26.928Z,22.66
2019-04-25T12:44:56.849Z,22.69
2019-04-25T12:45:26.922Z,22.68
2019-04-25T12:45:56.858Z,22.66
2019-04-25T12:46:26.923Z,22.68
2019-04-25T12:46:56.930Z,22.68
2019-04-25T12:47:26.914Z,22.73
2019-04-25T12:47:58.923Z,22.73
2019-04-25T12:48:26.916Z,22.70
2019-04-25T12:48:57.579Z,22.62
2019-04-25T12:49:26.914Z,22.52
2019-04-25T12:49:57.680Z,22.46
2019-04-25T12:50:26.924Z,22.32
2019-04-25T12:50:56.859Z,22.25
2019-04-25T12:51:26.920Z,22.20
2019-04-25T12:51:56.865Z,22.20
2019-04-25T12:52:26.917Z,22.18
2019-04-25T12:52:56.865Z,22.20
2019-04-25T12:53:27.137Z,22.15
2019-04-25T12:53:56.862Z,22.11
2019-04-25T12:54:58.047Z,22.14
2019-04-25T12:55:27.162Z,22.14
2019-04-25T12:55:56.861Z,22.15
2019-04-25T12:56:26.927Z,22.14
2019-04-25T12:56:57.252Z,22.11
2019-04-25T12:57:26.916Z,22.11
2019-04-25T12:57:56.856Z,22.07
2019-04-25T12:58:26.919Z,22.04
2019-04-25T12:58:56.861Z,22.00
2019-04-25T12:59:26.923Z,21.98
2019-04-25T12:59:57.564Z,21.98
2019-04-25T13:00:26.938Z,22.00
2019-04-25T13:00:58.911Z,22.04
2019-04-25T13:01:26.926Z,22.07
2019-04-25T13:01:57.436Z,22.02
2019-04-25T13:02:27.085Z,22.02
2019-04-25T13:02:56.860Z,22.02
2019-04-25T13:03:26.923Z,22.07
2019-04-25T13:03:57.196Z,22.11
2019-04-25T13:04:26.920Z,22.20
2019-04-25T13:04:56.866Z,22.29
2019-04-25T13:05:26.931Z,22.36
2019-04-25T13:05:56.861Z,22.42
2019-04-25T13:06:26.915Z,22.48
2019-04-25T13:06:57.691Z,22.48
2019-04-25T13:07:26.936Z,22.52
2019-04-25T13:07:58.622Z,22.52
2019-04-25T13:08:26.927Z,22.49
2019-04-25T13:08:56.872Z,22.49
2019-04-25T13:09:26.928Z,22.48
2019-04-25T13:09:56.864Z,22.45
2019-04-25T13:10:26.923Z,22.42
2019-04-25T13:11:07.448Z,22.39
2019-04-25T13:11:26.939Z,22.41
2019-04-25T13:11:56.865Z,22.42
2019-04-25T13:12:26.929Z,22.43
2019-04-25T13:12:56.871Z,22.48
2019-04-25T13:13:26.930Z,22.52
2019-04-25T13:13:56.866Z,22.49
2019-04-25T13:14:27.117Z,22.43
2019-04-25T13:14:56.926Z,22.36
2019-04-25T13:15:27.372Z,22.31
2019-04-25T13:15:56.877Z,22.22
2019-04-25T13:16:26.933Z,22.15
2019-04-25T13:16:56.860Z,22.07
2019-04-25T13:17:27.191Z,22.07
2019-04-25T13:17:56.877Z,22.04
2019-04-25T13:18:26.926Z,22.05
2019-04-25T13:19:09.322Z,22.07
2019-04-25T13:19:26.922Z,22.10
2019-04-25T13:19:56.897Z,22.12
2019-04-25T13:20:26.936Z,22.14
2019-04-25T13:20:57.247Z,22.21
2019-04-25T13:21:26.936Z,22.28
2019-04-25T13:21:57.042Z,22.28
2019-04-25T13:22:26.929Z,22.29
2019-04-25T13:22:56.918Z,22.29
2019-04-25T13:23:26.928Z,22.24
2019-04-25T13:23:57.863Z,22.20
2019-04-25T13:24:26.936Z,22.20
2019-04-25T13:24:57.149Z,22.21
2019-04-25T13:25:26.928Z,22.21
2019-04-25T13:25:57.300Z,22.25
2019-04-25T13:26:26.927Z,22.28
2019-04-25T13:26:57.000Z,22.32
2019-04-25T13:27:26.941Z,22.39
2019-04-25T13:27:57.442Z,22.49
2019-04-25T13:28:26.940Z,22.49
2019-04-25T13:28:56.879Z,22.55
2019-04-25T13:29:26.937Z,22.65
2019-04-25T13:29:57.257Z,22.69
2019-04-25T13:30:26.936Z,22.75
2019-04-25T13:31:02.294Z,22.82
2019-04-25T13:31:26.937Z,22.86
2019-04-25T13:31:56.872Z,22.90
2019-04-25T13:32:26.932Z,22.94
2019-04-25T13:32:57.664Z,23.01
2019-04-25T13:33:26.980Z,23.04
2019-04-25T13:33:57.343Z,23.07
2019-04-25T13:34:35.890Z,23.04
2019-04-25T13:34:57.147Z,23.03
2019-04-25T13:35:27.168Z,22.98
2019-04-25T13:35:57.606Z,22.94
2019-04-25T13:36:26.930Z,22.90
2019-04-25T13:36:58.057Z,22.90
2019-04-25T13:37:26.927Z,22.93
2019-04-25T13:37:57.604Z,22.97
2019-04-25T13:38:26.930Z,23.06
2019-04-25T13:38:57.165Z,23.11
2019-04-25T13:39:26.944Z,23.15
2019-04-25T13:39:57.401Z,23.25
2019-04-25T13:40:26.937Z,23.31
2019-04-25T13:40:57.214Z,23.37
2019-04-25T13:41:27.916Z,23.42
2019-04-25T13:41:58.738Z,23.46
2019-04-25T13:42:26.930Z,23.45
2019-04-25T13:42:56.870Z,23.38
2019-04-25T13:43:26.928Z,23.34
2019-04-25T13:43:57.691Z,23.37
2019-04-25T13:44:26.942Z,23.40
2019-04-25T13:44:56.873Z,23.42
2019-04-25T13:45:26.942Z,23.42
2019-04-25T13:45:57.121Z,23.40
2019-04-25T13:46:27.571Z,23.40
2019-04-25T13:46:56.868Z,23.41
2019-04-25T13:47:29.024Z,23.37
2019-04-25T13:47:56.869Z,23.37
2019-04-25T13:48:27.759Z,23.41
2019-04-25T13:48:56.876Z,23.46
2019-04-25T13:49:27.238Z,23.49
2019-04-25T13:49:56.875Z,23.60
2019-04-25T13:50:27.579Z,23.66
2019-04-25T13:50:56.877Z,23.75
2019-04-25T13:51:26.938Z,23.80
2019-04-25T13:51:56.878Z,23.88
2019-04-25T13:52:26.939Z,23.96
2019-04-25T13:52:56.871Z,23.99
2019-04-25T13:53:27.309Z,24.03
2019-04-25T13:53:56.914Z,24.07
2019-04-25T13:54:26.946Z,24.07
2019-04-25T13:54:56.880Z,24.07
2019-04-25T13:55:26.944Z,24.13
2019-04-25T13:55:56.877Z,24.15
2019-04-25T13:56:27.468Z,24.19
2019-04-25T13:56:56.871Z,24.20
2019-04-25T13:57:27.613Z,24.26
2019-04-25T13:57:56.876Z,24.28
2019-04-25T13:58:28.316Z,24.31
2019-04-25T13:58:56.885Z,24.33
2019-04-25T13:59:26.950Z,24.31
2019-04-25T13:59:56.879Z,24.37
2019-04-25T14:00:27.721Z,24.40
2019-04-25T14:00:56.884Z,24.41
2019-04-25T14:01:27.577Z,24.45
2019-04-25T14:01:57.739Z,24.47
2019-04-25T14:02:26.957Z,24.51
2019-04-25T14:02:57.006Z,24.52
2019-04-25T14:03:27.278Z,24.52
2019-04-25T14:03:56.895Z,24.51
2019-04-25T14:04:27.919Z,24.55
2019-04-25T14:04:56.876Z,24.55
2019-04-25T14:05:26.942Z,24.55
2019-04-25T14:05:56.881Z,24.55
2019-04-25T14:06:26.958Z,24.57
2019-04-25T14:06:57.146Z,24.55
2019-04-25T14:07:27.299Z,24.58
2019-04-25T14:07:56.878Z,24.58
2019-04-25T14:08:27.033Z,24.58
2019-04-25T14:08:56.879Z,24.61
2019-04-25T14:09:27.176Z,24.61
2019-04-25T14:09:56.888Z,24.58
2019-04-25T14:10:27.850Z,24.63
2019-04-25T14:10:56.886Z,24.61
2019-04-25T14:11:27.762Z,24.63
2019-04-25T14:11:56.887Z,24.64
2019-04-25T14:12:28.732Z,24.63
2019-04-25T14:12:56.882Z,24.67
2019-04-25T14:13:27.739Z,24.64
2019-04-25T14:13:56.886Z,24.64
2019-04-25T14:14:26.956Z,24.65
2019-04-25T14:14:56.883Z,24.61
2019-04-25T14:15:27.474Z,24.58
2019-04-25T14:15:56.888Z,24.54
2019-04-25T14:16:26.953Z,24.50
2019-04-25T14:16:56.893Z,24.44
2019-04-25T14:17:27.830Z,24.38
2019-04-25T14:17:56.882Z,24.30
2019-04-25T14:18:26.954Z,24.20
2019-04-25T14:18:56.894Z,24.09
2019-04-25T14:19:26.950Z,23.95
2019-04-25T14:19:56.900Z,23.88
2019-04-25T14:20:27.707Z,23.78
2019-04-25T14:20:56.901Z,23.76
2019-04-25T14:21:27.285Z,23.73
2019-04-25T14:21:56.882Z,23.73
2019-04-25T14:22:27.515Z,23.73
2019-04-25T14:22:56.888Z,23.78
2019-04-25T14:23:27.213Z,23.73
2019-04-25T14:23:56.887Z,23.71
2019-04-25T14:24:30.330Z,23.64
2019-04-25T14:24:56.892Z,23.57
2019-04-25T14:25:27.232Z,23.52
2019-04-25T14:25:56.890Z,23.48
2019-04-25T14:26:27.093Z,23.44
2019-04-25T14:26:56.881Z,23.42
2019-04-25T14:27:27.747Z,23.40
2019-04-25T14:27:58.301Z,23.40
2019-04-25T14:28:29.207Z,23.41
2019-04-25T14:28:56.890Z,23.45
2019-04-25T14:29:26.942Z,23.49
2019-04-25T14:29:56.931Z,23.49
2019-04-25T14:30:26.957Z,23.55
2019-04-25T14:30:56.889Z,23.60
2019-04-25T14:31:36.454Z,23.65
2019-04-25T14:31:56.904Z,23.71